createdAt,value
2022-10-19T00:00:00.429Z,4.78
2022-10-19T00:02:29.902Z,4.93
2022-10-19T00:04:57.047Z,5.45
2022-10-19T00:07:24.173Z,5.20
2022-10-19T00:09:53.639Z,5.28
2022-10-19T00:12:20.891Z,5.32
2022-10-19T00:14:48.348Z,5.38
2022-10-19T00:17:15.880Z,5.53
2022-10-19T00:19:43.030Z,5.80
2022-10-19T00:22:13.084Z,5.68
2022-10-19T00:24:41.964Z,5.38
2022-10-19T00:27:09.710Z,5.55
2022-10-19T00:29:37.551Z,5.30
2022-10-19T00:32:05.285Z,5.00
2022-10-19T00:34:33.115Z,4.32
2022-10-19T00:37:00.880Z,4.97
2022-10-19T00:39:29.053Z,4.60
2022-10-19T00:41:59.477Z,4.43
2022-10-19T00:44:29.672Z,4.22
2022-10-19T00:47:02.582Z,4.78
2022-10-19T00:49:32.401Z,4.43
2022-10-19T00:52:05.135Z,4.10
2022-10-19T00:54:33.328Z,4.90
2022-10-19T00:57:00.702Z,4.23
2022-10-19T00:59:32.031Z,4.50
2022-10-19T01:02:00.221Z,4.32
2022-10-19T01:04:28.170Z,4.38
2022-10-19T01:06:56.338Z,3.95
2022-10-19T01:09:24.266Z,4.20
2022-10-19T01:12:04.556Z,3.97
2022-10-19T01:14:43.615Z,3.70
2022-10-19T01:17:14.371Z,3.92
2022-10-19T01:20:00.938Z,3.67
2022-10-19T01:22:45.269Z,4.10
2022-10-19T01:25:12.516Z,4.03
2022-10-19T01:27:39.652Z,3.85
2022-10-19T01:30:07.101Z,4.15
2022-10-19T01:32:34.613Z,4.07
2022-10-19T01:35:27.978Z,3.20
2022-10-19T01:38:06.643Z,3.65
2022-10-19T02:07:25.965Z,3.42
2022-10-19T02:09:53.097Z,3.75
2022-10-19T02:12:43.254Z,3.53
2022-10-19T02:15:11.819Z,3.42
2022-10-19T02:17:41.031Z,3.35
2022-10-19T02:20:08.409Z,3.30
2022-10-19T02:22:35.991Z,3.40
2022-10-19T02:25:03.411Z,3.42
2022-10-19T02:27:30.692Z,3.15
2022-10-19T02:29:57.798Z,3.30
2022-10-19T02:32:34.445Z,3.40
2022-10-19T02:35:02.379Z,3.30
2022-10-19T02:37:30.519Z,3.20
2022-10-19T02:39:58.265Z,3.20
2022-10-19T02:42:46.964Z,3.60
2022-10-19T02:45:18.235Z,3.38
2022-10-19T02:47:55.168Z,3.28
2022-10-19T02:50:23.938Z,3.30
2022-10-19T02:52:54.111Z,3.30
2022-10-19T02:55:21.295Z,3.38
2022-10-19T02:57:48.453Z,3.17
2022-10-19T03:00:15.669Z,3.63
2022-10-19T03:02:42.965Z,3.42
2022-10-19T03:05:12.573Z,2.90
2022-10-19T03:07:41.577Z,2.90
2022-10-19T03:10:08.905Z,3.53
2022-10-19T03:12:45.566Z,2.90
2022-10-19T03:15:16.842Z,3.17
2022-10-19T03:17:44.098Z,3.20
2022-10-19T03:20:16.529Z,3.08
2022-10-19T03:22:54.661Z,3.47
2022-10-19T03:25:24.915Z,3.20
2022-10-19T03:27:52.657Z,3.05
2022-10-19T03:30:20.469Z,2.97
2022-10-19T03:32:48.316Z,3.20
2022-10-19T03:35:18.108Z,2.88
2022-10-19T03:37:46.513Z,3.25
2022-10-19T03:40:13.632Z,3.00
2022-10-19T03:42:40.715Z,2.95
2022-10-19T03:45:08.108Z,3.00
2022-10-19T03:47:35.411Z,2.75
2022-10-19T03:50:02.951Z,2.90
2022-10-19T03:52:30.121Z,3.22
2022-10-19T03:54:57.280Z,3.10
2022-10-19T03:57:24.676Z,2.70
2022-10-19T03:59:52.062Z,2.80
2022-10-19T04:02:19.351Z,2.70
2022-10-19T04:04:49.689Z,2.58
2022-10-19T04:33:28.367Z,2.78
2022-10-19T04:36:03.531Z,2.58
2022-10-19T04:38:31.474Z,2.90
2022-10-19T04:41:11.828Z,2.50
2022-10-19T04:43:39.836Z,2.70
2022-10-19T04:46:08.805Z,2.60
2022-10-19T04:48:36.895Z,2.80
2022-10-19T04:51:04.290Z,2.80
2022-10-19T04:53:31.982Z,2.53
2022-10-19T04:55:59.245Z,2.72
2022-10-19T04:58:26.438Z,2.42
2022-10-19T05:00:56.057Z,2.50
2022-10-19T05:03:23.230Z,2.40
2022-10-19T05:05:50.618Z,2.60
2022-10-19T05:08:17.771Z,2.90
2022-10-19T05:10:47.622Z,2.75
2022-10-19T05:13:15.098Z,2.65
2022-10-19T05:15:42.308Z,2.40
2022-10-19T05:18:09.479Z,2.65
2022-10-19T05:20:36.647Z,2.40
2022-10-19T05:23:06.389Z,2.60
2022-10-19T05:25:38.024Z,2.25
2022-10-19T05:28:05.711Z,2.42
2022-10-19T05:30:33.285Z,2.50
2022-10-19T05:33:00.964Z,2.50
2022-10-19T05:35:28.804Z,2.47
2022-10-19T05:37:56.660Z,2.30
2022-10-19T05:40:26.574Z,2.53
2022-10-19T05:42:53.830Z,2.13
2022-10-19T05:45:21.082Z,2.10
2022-10-19T05:47:48.284Z,2.20
2022-10-19T05:50:15.453Z,2.17
2022-10-19T05:52:45.583Z,2.33
2022-10-19T05:55:12.666Z,2.40
2022-10-19T05:57:39.802Z,2.28
2022-10-19T06:00:07.105Z,2.95
2022-10-19T06:02:34.224Z,2.30
2022-10-19T06:05:01.437Z,2.17
2022-10-19T06:07:28.552Z,2.50
2022-10-19T06:09:55.781Z,2.17
2022-10-19T06:12:25.041Z,2.50
2022-10-19T06:14:52.359Z,2.45
2022-10-19T06:17:19.669Z,2.30
2022-10-19T06:19:48.048Z,2.17
2022-10-19T06:22:15.211Z,2.85
2022-10-19T06:24:42.365Z,2.20
2022-10-19T06:27:09.648Z,2.35
2022-10-19T06:29:44.174Z,2.33
2022-10-19T06:32:14.286Z,2.40
2022-10-19T06:34:41.781Z,2.13
2022-10-19T06:37:09.228Z,2.70
2022-10-19T06:39:36.695Z,2.50
2022-10-19T06:42:04.059Z,2.50
2022-10-19T06:44:31.655Z,2.30
2022-10-19T06:46:58.828Z,2.33
2022-10-19T06:49:26.072Z,2.47
2022-10-19T06:51:53.363Z,2.35
2022-10-19T06:54:20.549Z,2.40
2022-10-19T06:56:47.762Z,2.28
2022-10-19T06:59:15.133Z,2.45
2022-10-19T07:01:42.384Z,3.03
2022-10-19T07:04:09.748Z,2.83
2022-10-19T07:06:36.945Z,2.90
2022-10-19T07:09:06.718Z,2.65
2022-10-19T07:11:33.930Z,3.00
2022-10-19T07:14:01.363Z,3.10
2022-10-19T07:16:28.530Z,3.10
2022-10-19T07:18:55.755Z,2.95
2022-10-19T07:21:23.883Z,3.85
2022-10-19T07:23:51.074Z,2.72
2022-10-19T07:26:22.862Z,2.70
2022-10-19T07:28:53.763Z,2.63
2022-10-19T07:31:22.554Z,2.55
2022-10-19T07:34:15.804Z,2.65
2022-10-19T07:36:46.032Z,2.92
2022-10-19T07:39:13.446Z,2.65
2022-10-19T07:41:40.920Z,2.50
2022-10-19T07:44:09.914Z,2.40
2022-10-19T07:46:43.569Z,2.50
2022-10-19T07:49:12.182Z,2.60
2022-10-19T07:51:39.759Z,2.88
2022-10-19T07:54:07.118Z,2.70
2022-10-19T07:56:34.699Z,3.03
2022-10-19T07:59:02.815Z,2.28
2022-10-19T08:01:31.843Z,2.40
2022-10-19T08:06:49.666Z,3.07
2022-10-19T08:09:40.205Z,2.40
2022-10-19T08:12:05.994Z,2.55
2022-10-19T08:14:33.917Z,2.30
2022-10-19T08:17:04.475Z,2.70
2022-10-19T08:19:31.780Z,2.50
2022-10-19T08:21:59.028Z,2.60
2022-10-19T08:24:26.433Z,2.58
2022-10-19T08:26:54.128Z,2.40
2022-10-19T08:29:21.828Z,2.38
2022-10-19T08:31:49.588Z,2.43
2022-10-19T08:34:17.386Z,2.80
2022-10-19T08:36:44.769Z,2.47
2022-10-19T08:39:12.760Z,3.08
2022-10-19T08:41:43.247Z,2.63
2022-10-19T08:44:13.015Z,2.63
2022-10-19T08:46:48.733Z,3.20
2022-10-19T08:49:21.442Z,2.40
2022-10-19T08:51:52.321Z,2.72
2022-10-19T08:54:20.076Z,2.78
2022-10-19T08:57:01.467Z,2.90
2022-10-19T08:59:34.580Z,2.90
2022-10-19T09:02:20.558Z,2.90
2022-10-19T09:04:58.209Z,3.42
2022-10-19T09:07:25.797Z,3.00
2022-10-19T09:10:02.633Z,3.23
2022-10-19T09:12:41.478Z,3.05
2022-10-19T09:15:12.840Z,3.03
2022-10-19T09:17:40.296Z,3.20
2022-10-19T09:20:15.599Z,3.03
2022-10-19T09:22:44.412Z,2.90
2022-10-19T09:25:15.009Z,2.95
2022-10-19T09:27:44.786Z,3.03
2022-10-19T09:30:24.555Z,3.13
2022-10-19T09:32:54.576Z,2.90
2022-10-19T09:35:28.355Z,2.80
2022-10-19T09:37:56.748Z,3.75
2022-10-19T09:40:26.086Z,2.88
2022-10-19T09:43:03.425Z,3.08
2022-10-19T09:45:34.795Z,2.78
2022-10-19T09:48:07.095Z,2.90
2022-10-19T09:50:43.248Z,2.30
2022-10-19T09:53:16.905Z,2.78
2022-10-19T09:55:45.211Z,2.67
2022-10-19T09:58:15.447Z,2.90
2022-10-19T10:00:55.234Z,2.03
2022-10-19T10:03:22.394Z,2.10
2022-10-19T10:05:49.677Z,2.00
2022-10-19T10:08:31.806Z,1.80
2022-10-19T10:11:12.931Z,1.95
2022-10-19T10:14:00.988Z,1.83
2022-10-19T10:16:30.387Z,2.03
2022-10-19T10:19:08.586Z,1.52
2022-10-19T10:21:47.670Z,1.60
2022-10-19T10:24:16.451Z,1.50
2022-10-19T10:26:44.903Z,1.27
2022-10-19T10:29:39.177Z,1.35
2022-10-19T10:32:17.348Z,1.20
2022-10-19T10:34:51.873Z,1.23
2022-10-19T10:37:24.992Z,1.00
2022-10-19T10:40:04.793Z,0.90
2022-10-19T10:42:37.792Z,1.08
2022-10-19T10:45:06.072Z,1.10
2022-10-19T10:47:36.691Z,0.82
2022-10-19T10:50:07.393Z,1.00
2022-10-19T10:52:36.515Z,2.30
2022-10-19T10:55:04.237Z,1.10
2022-10-19T10:57:39.344Z,1.10
2022-10-19T11:00:20.574Z,0.98
2022-10-19T11:03:09.612Z,1.13
2022-10-19T11:05:41.906Z,1.10
2022-10-19T11:08:19.327Z,0.90
2022-10-19T11:10:57.877Z,0.93
2022-10-19T11:13:29.835Z,1.90
2022-10-19T11:16:03.931Z,1.00
2022-10-19T11:18:37.364Z,1.00
2022-10-19T11:21:16.412Z,0.80
2022-10-19T11:23:43.464Z,0.90
2022-10-19T11:26:26.205Z,0.88
2022-10-19T11:28:59.169Z,1.20
2022-10-19T11:31:40.646Z,0.70
2022-10-19T11:34:17.561Z,0.90
2022-10-19T11:37:04.615Z,1.00
2022-10-19T11:39:41.150Z,0.95
2022-10-19T11:42:18.165Z,1.05
2022-10-19T11:44:58.284Z,1.10
2022-10-19T11:47:33.572Z,0.90
2022-10-19T11:50:01.596Z,0.90
2022-10-19T11:52:54.780Z,0.90
2022-10-19T11:55:28.256Z,1.00
2022-10-19T11:58:00.692Z,0.90
2022-10-19T12:00:40.237Z,1.10
2022-10-19T12:03:11.693Z,1.10
2022-10-19T12:05:44.731Z,1.00
2022-10-19T12:10:52.030Z,1.37
2022-10-19T12:13:34.010Z,1.58
2022-10-19T12:16:01.669Z,1.40
2022-10-19T12:18:44.560Z,1.60
2022-10-19T12:21:30.782Z,1.60
2022-10-19T12:23:59.467Z,1.50
2022-10-19T12:26:29.096Z,1.40
2022-10-19T12:29:00.067Z,1.50
2022-10-19T12:31:28.104Z,1.67
2022-10-19T12:34:07.569Z,1.70
2022-10-19T12:36:44.094Z,1.60
2022-10-19T12:39:24.779Z,1.63
2022-10-19T12:41:58.060Z,1.80
2022-10-19T12:44:48.505Z,1.60
2022-10-19T12:47:20.597Z,1.70
2022-10-19T12:49:49.564Z,1.20
2022-10-19T12:59:23.394Z,1.35
2022-10-19T13:01:50.914Z,1.40
2022-10-19T13:04:26.841Z,1.43
2022-10-19T13:07:05.372Z,1.30
2022-10-19T13:09:32.991Z,1.30
2022-10-19T13:12:19.485Z,1.20
2022-10-19T13:14:52.500Z,1.40
2022-10-19T13:17:52.458Z,1.20
2022-10-19T13:20:20.058Z,1.30
2022-10-19T13:22:59.322Z,1.00
2022-10-19T13:25:30.370Z,1.13
2022-10-19T13:28:02.379Z,1.20
2022-10-19T13:30:39.042Z,1.30
2022-10-19T13:33:31.623Z,1.23
2022-10-19T13:36:02.576Z,1.08
2022-10-19T13:38:38.402Z,1.30
2022-10-19T13:41:18.549Z,1.20
2022-10-19T13:44:05.233Z,1.40
2022-10-19T13:46:37.459Z,1.30
2022-10-19T13:49:05.296Z,1.52
2022-10-19T13:51:42.301Z,1.10
2022-10-19T13:54:31.916Z,1.40
2022-10-19T13:57:19.918Z,1.23
2022-10-19T14:00:05.690Z,1.58
2022-10-19T14:02:51.116Z,1.40
2022-10-19T14:05:33.417Z,1.38
2022-10-19T14:08:19.513Z,1.40
2022-10-19T14:11:07.658Z,1.57
2022-10-19T14:13:35.126Z,1.33
2022-10-19T14:16:12.139Z,4.25
2022-10-19T14:18:39.565Z,1.58
2022-10-19T14:21:15.676Z,1.20
2022-10-19T14:26:35.884Z,2.38
2022-10-19T14:29:11.701Z,1.10
2022-10-19T14:31:39.765Z,1.50
2022-10-19T14:34:09.440Z,1.30
2022-10-19T14:36:47.955Z,1.03
2022-10-19T14:39:28.950Z,1.00
2022-10-19T14:41:57.179Z,1.50
2022-10-19T14:44:36.192Z,1.50
2022-10-19T14:47:07.267Z,1.20
2022-10-19T14:49:34.355Z,1.77
2022-10-19T18:09:05.960Z,3.40
2022-10-19T18:11:56.852Z,3.00
2022-10-19T18:14:24.037Z,3.40
2022-10-19T18:16:52.041Z,3.50
2022-10-19T18:19:20.386Z,3.20
2022-10-19T18:21:49.194Z,3.55
2022-10-19T18:27:25.785Z,3.20
2022-10-19T18:29:55.721Z,3.28
2022-10-19T18:32:22.966Z,3.40
2022-10-19T18:34:50.425Z,3.30
2022-10-19T18:37:17.898Z,2.90
2022-10-19T18:39:45.382Z,3.20
2022-10-19T18:42:12.865Z,3.50
2022-10-19T18:44:40.272Z,3.20
2022-10-19T18:47:07.838Z,3.67
2022-10-19T18:49:35.184Z,3.40
2022-10-19T18:52:02.661Z,3.33
